01:09 Bike Moetz - Telfs - Fiecht - Barwies - Moetz
Ort Moetz Datum 12.07.2010 17:14:06
Kategorie MTB
Distanz 26,11 Kilometer Steigung 289,4 Meter Gefälle -271,2 Meter
Gesamt Zeit 01:08:32 Aktiv 01:08:32 Pause 00:00:00
Durchs. Tempo 22,9 km/h Tempo max. 51,8 km/h Tempo min. 7,5 km/h
Kalorien 0 Durchs. HF 145 BPM HF max. 171 BPM
Wetter 30 °C ChanceThunder
Ausrüstung Schwalbe - Racing Ralph hinten
Schwalbe - Racing Ralph vorne
Shimano - HG-93 XT
Specialized - BG S-Works MTB
Specialized - Stumpjumper Comp
SwissStop - Disc17 Avid Juicy
Notiz Moetz - Telfs - Fiecht - Barwies - Moetz ... bis Telfs starker Gegenwind, sonst super ... garmin connect
Splits
Distanz (km) Gesamt Zeit Split Zeit Split Tempo Split Tempo Höhenprofil (m)
1,00 00:02:19 00:02:19 00:02:19 25,9 -10,00
2,00 00:04:31 00:02:12 00:02:12 27,3 -1,64
3,00 00:06:44 00:02:13 00:02:13 27,1 -1,06
4,00 00:09:00 00:02:16 00:02:16 26,5 -2,23
5,00 00:11:14 00:02:14 00:02:14 26,9 0,88
6,00 00:13:27 00:02:13 00:02:13 27,1 -0,01
7,00 00:15:50 00:02:23 00:02:23 25,2 -1,93
8,00 00:18:07 00:02:17 00:02:17 26,3 -7,00
9,00 00:20:25 00:02:18 00:02:18 26,1 -2,68
10,00 00:22:40 00:02:15 00:02:15 26,7 -3,06
11,00 00:25:04 00:02:24 00:02:24 25,0 -1,35
12,00 00:27:06 00:02:02 00:02:02 29,5 2,09
13,00 00:30:03 00:02:57 00:02:57 20,3 21,33
14,00 00:34:30 00:04:27 00:04:27 13,5 60,15
15,00 00:39:14 00:04:44 00:04:44 12,7 59,64
16,00 00:42:54 00:03:40 00:03:40 16,4 36,02
17,00 00:46:56 00:04:02 00:04:02 14,9 43,11
18,00 00:49:40 00:02:44 00:02:44 22,0 -13,39
19,00 00:52:37 00:02:57 00:02:57 20,3 6,39
20,00 00:55:18 00:02:41 00:02:41 22,4 18,66
21,00 00:58:08 00:02:50 00:02:50 21,2 17,11
22,00 01:00:02 00:01:54 00:01:54 31,6 1,96
23,00 01:01:42 00:01:40 00:01:40 36,0 -55,60
24,00 01:04:04 00:02:22 00:02:22 25,4 0,33
25,00 01:06:32 00:02:28 00:02:28 24,3 -117,28
26,00 01:08:15 00:01:43 00:01:43 35,0 -42,38